Time;durP1;ratioP1;P1;durP2;ratioP2;P2;SDS_P1;SDS_P2;PMS_P1;PMS_P2;Temp;Humidity;BMP_temperature;BMP_pressure;BME280_temperature;BME280_humidity;BME280_pressure;Samples;Min_cycle;Max_cycle;Signal;HPM_P1;HPM_P2
2022/12/08 05:30:59;;;;;;;;;49.00;38.75;;;;;;;;5315975;24;46357;-63
2022/12/08 05:33:25;;;;;;;;;50.00;40.75;;;;;;;;4709548;30;45363;-62
2022/12/08 05:35:50;;;;;;;;;42.75;35.25;;;;;;;;4715618;30;45342;-62
2022/12/08 05:38:15;;;;;;;;;43.75;36.75;;;;;;;;4707289;30;45632;-62
2022/12/08 05:40:42;;;;;;;;;40.75;31.25;;;;;;;;4711554;30;45487;-62
2022/12/08 05:43:07;;;;;;;;;37.00;29.75;;;;;;;;4713116;30;45473;-63
2022/12/08 05:45:32;;;;;;;;;40.50;35.75;;;;;;;;4711939;30;45364;-62
2022/12/08 05:47:58;;;;;;;;;43.25;34.75;;;;;;;;4709359;30;46234;-62
2022/12/08 05:50:23;;;;;;;;;40.67;33.33;;;;;;;;4719168;30;45673;-63
2022/12/08 05:52:48;;;;;;;;;36.00;33.67;;;;;;;;4713763;30;45813;-62
2022/12/08 05:55:13;;;;;;;;;37.75;30.25;;;;;;;;4707749;30;45723;-63
2022/12/08 05:57:38;;;;;;;;;34.75;32.50;;;;;;;;4706812;30;46459;-63
2022/12/08 06:00:04;;;;;;;;;41.25;34.00;;;;;;;;4713368;30;45367;-63
2022/12/08 06:02:29;;;;;;;;;33.00;30.33;;;;;;;;4714415;30;45384;-63
2022/12/08 06:04:54;;;;;;;;;39.33;31.00;;;;;;;;4712058;30;45644;-64
2022/12/08 06:07:20;;;;;;;;;19.25;17.00;;;;;;;;4707507;30;46138;-63
2022/12/08 06:09:45;;;;;;;;;40.50;33.50;;;;;;;;4715385;30;45313;-63
2022/12/08 06:12:10;;;;;;;;;36.75;29.00;;;;;;;;4706815;30;45443;-63
2022/12/08 06:14:37;;;;;;;;;30.00;27.33;;;;;;;;4710574;30;45673;-63
2022/12/08 06:17:02;;;;;;;;;28.00;27.33;;;;;;;;4716523;30;45478;-64
2022/12/08 06:19:27;;;;;;;;;28.00;25.00;;;;;;;;4718822;30;45399;-63
2022/12/08 06:21:52;;;;;;;;;35.33;29.33;;;;;;;;4715755;30;45555;-63
2022/12/08 06:24:17;;;;;;;;;28.33;28.33;;;;;;;;4710195;30;45394;-63
2022/12/08 06:26:43;;;;;;;;;36.00;31.00;;;;;;;;4703772;30;45509;-63
2022/12/08 06:29:08;;;;;;;;;37.25;27.50;;;;;;;;4712998;30;45418;-63
2022/12/08 06:31:33;;;;;;;;;36.67;29.33;;;;;;;;4707281;30;45582;-63
2022/12/08 06:33:58;;;;;;;;;26.67;22.00;;;;;;;;4718311;30;45465;-63
2022/12/08 06:36:25;;;;;;;;;29.00;24.67;;;;;;;;4710011;30;45670;-64
2022/12/08 06:38:50;;;;;;;;;30.33;26.00;;;;;;;;4714972;30;45507;-63
2022/12/08 06:41:15;;;;;;;;;30.33;23.00;;;;;;;;4721482;30;45622;-65
2022/12/08 06:43:41;;;;;;;;;26.00;23.33;;;;;;;;4719709;30;45388;-65
2022/12/08 06:46:09;;;;;;;;;31.00;27.00;;;;;;;;4719570;30;46318;-67
2022/12/08 06:48:34;;;;;;;;;30.33;26.00;;;;;;;;4713766;30;45724;-63
2022/12/08 06:51:10;;;;;;;;;21.33;19.67;;;;;;;;4710488;30;45600;-63
2022/12/08 06:53:35;;;;;;;;;30.33;25.33;;;;;;;;4714037;30;45524;-63
2022/12/08 06:56:00;;;;;;;;;29.00;25.67;;;;;;;;4710611;30;46011;-63
2022/12/08 06:58:26;;;;;;;;;35.33;27.67;;;;;;;;4710100;30;45680;-63
2022/12/08 07:00:51;;;;;;;;;36.00;27.67;;;;;;;;4715680;30;45652;-62
2022/12/08 07:03:16;;;;;;;;;30.00;26.33;;;;;;;;4718907;30;45730;-63
2022/12/08 07:05:41;;;;;;;;;27.33;26.00;;;;;;;;4714417;30;45572;-64
2022/12/08 07:08:07;;;;;;;;;25.67;23.33;;;;;;;;4708347;30;45615;-63
2022/12/08 07:10:32;;;;;;;;;19.00;15.33;;;;;;;;4711367;30;46941;-63
2022/12/08 07:12:58;;;;;;;;;33.33;26.33;;;;;;;;4718102;30;45268;-62
2022/12/08 07:15:24;;;;;;;;;23.67;20.00;;;;;;;;4718292;30;46449;-64
2022/12/08 07:17:50;;;;;;;;;32.00;22.33;;;;;;;;4717138;30;45544;-64
2022/12/08 07:20:15;;;;;;;;;31.00;28.67;;;;;;;;4715089;30;45324;-63
2022/12/08 07:22:41;;;;;;;;;28.00;26.00;;;;;;;;4711940;30;45549;-63
2022/12/08 07:25:06;;;;;;;;;27.33;23.33;;;;;;;;4719782;30;45470;-64
2022/12/08 07:27:31;;;;;;;;;37.00;29.00;;;;;;;;4696650;30;45499;-64
2022/12/08 07:29:56;;;;;;;;;31.75;29.75;;;;;;;;4721236;30;45364;-64
2022/12/08 07:32:22;;;;;;;;;36.33;26.33;;;;;;;;4719532;30;45213;-64
2022/12/08 07:34:47;;;;;;;;;37.00;27.00;;;;;;;;4707755;30;45618;-64
2022/12/08 07:37:12;;;;;;;;;34.00;28.00;;;;;;;;4711674;30;45302;-63
2022/12/08 07:39:37;;;;;;;;;36.67;28.00;;;;;;;;4707654;30;45424;-64
2022/12/08 07:42:02;;;;;;;;;32.00;27.67;;;;;;;;4720131;30;45424;-63
2022/12/08 07:44:28;;;;;;;;;30.33;26.67;;;;;;;;4708024;30;45388;-63
2022/12/08 07:46:53;;;;;;;;;38.33;34.00;;;;;;;;4715576;30;45254;-63
2022/12/08 07:49:18;;;;;;;;;36.00;29.00;;;;;;;;4713002;30;45293;-63
2022/12/08 07:51:43;;;;;;;;;48.00;33.50;;;;;;;;4719829;30;45486;-63
2022/12/08 07:54:12;;;;;;;;;34.00;28.67;;;;;;;;4721499;30;46256;-63
2022/12/08 07:56:37;;;;;;;;;35.50;29.00;;;;;;;;4716065;30;45356;-64
2022/12/08 07:59:03;;;;;;;;;33.50;31.00;;;;;;;;4721079;30;45422;-64
2022/12/08 08:01:29;;;;;;;;;36.00;29.00;;;;;;;;4709510;30;45489;-64
2022/12/08 08:03:55;;;;;;;;;23.33;22.00;;;;;;;;4708112;30;46999;-64
2022/12/08 08:06:20;;;;;;;;;25.67;23.33;;;;;;;;4715172;30;45413;-63
2022/12/08 08:08:45;;;;;;;;;28.33;24.33;;;;;;;;4714218;30;45279;-63
2022/12/08 08:11:10;;;;;;;;;28.67;27.67;;;;;;;;4719327;30;45355;-63
2022/12/08 08:13:36;;;;;;;;;37.50;27.75;;;;;;;;4710843;30;45368;-64
2022/12/08 08:16:04;;;;;;;;;33.00;30.50;;;;;;;;4709492;30;45561;-64
2022/12/08 08:18:30;;;;;;;;;29.00;24.00;;;;;;;;4713626;30;45415;-63
2022/12/08 08:20:55;;;;;;;;;33.50;30.75;;;;;;;;4710177;30;45250;-63
2022/12/08 08:23:20;;;;;;;;;33.75;30.50;;;;;;;;4715724;30;45507;-63
2022/12/08 08:25:45;;;;;;;;;38.00;33.00;;;;;;;;4709541;30;45378;-64
2022/12/08 08:28:10;;;;;;;;;36.75;31.50;;;;;;;;4713742;30;45341;-64
2022/12/08 08:30:36;;;;;;;;;40.50;33.00;;;;;;;;4707591;30;45275;-64
2022/12/08 08:33:01;;;;;;;;;47.00;31.25;;;;;;;;4708115;30;45296;-64
2022/12/08 08:35:26;;;;;;;;;36.50;29.75;;;;;;;;4712485;30;45384;-63
2022/12/08 08:37:51;;;;;;;;;41.00;30.67;;;;;;;;4719997;30;45375;-64
2022/12/08 08:40:17;;;;;;;;;40.25;32.00;;;;;;;;4714905;30;45400;-64
2022/12/08 08:42:42;;;;;;;;;36.50;26.00;;;;;;;;4707265;30;46964;-63
2022/12/08 08:45:07;;;;;;;;;27.00;26.33;;;;;;;;4705260;30;45461;-63
2022/12/08 08:47:33;;;;;;;;;36.33;31.67;;;;;;;;4717060;30;45359;-63
2022/12/08 08:49:58;;;;;;;;;40.75;32.75;;;;;;;;4714766;30;45518;-63
2022/12/08 08:52:23;;;;;;;;;37.00;31.00;;;;;;;;4718880;30;46033;-64
2022/12/08 08:54:48;;;;;;;;;35.25;30.50;;;;;;;;4717341;30;45320;-63
2022/12/08 08:57:13;;;;;;;;;34.75;33.50;;;;;;;;4718596;30;45351;-64
2022/12/08 08:59:39;;;;;;;;;47.25;35.50;;;;;;;;4712898;30;45249;-63
2022/12/08 09:02:04;;;;;;;;;39.67;32.33;;;;;;;;4712852;30;46365;-63
2022/12/08 09:04:29;;;;;;;;;37.50;35.25;;;;;;;;4714378;30;45371;-64
2022/12/08 09:06:54;;;;;;;;;41.25;33.25;;;;;;;;4694839;30;45356;-63
2022/12/08 09:09:20;;;;;;;;;39.75;34.25;;;;;;;;4716757;30;45345;-63
2022/12/08 09:11:45;;;;;;;;;36.25;30.25;;;;;;;;4719776;30;45383;-63
2022/12/08 09:14:11;;;;;;;;;42.75;35.00;;;;;;;;4715281;30;45559;-63
2022/12/08 09:16:36;;;;;;;;;34.67;30.00;;;;;;;;4718501;30;45525;-63
2022/12/08 09:19:01;;;;;;;;;38.33;34.00;;;;;;;;4695089;30;45476;-63
2022/12/08 09:21:27;;;;;;;;;37.00;32.00;;;;;;;;4694158;30;47158;-63
2022/12/08 09:23:53;;;;;;;;;38.50;34.50;;;;;;;;4714485;30;45227;-63
2022/12/08 09:26:21;;;;;;;;;38.67;31.67;;;;;;;;4713175;30;45296;-63
2022/12/08 09:28:46;;;;;;;;;25.67;23.00;;;;;;;;4716096;30;45472;-64
2022/12/08 09:31:15;;;;;;;;;35.33;28.33;;;;;;;;4718591;30;45550;-63
2022/12/08 09:33:41;;;;;;;;;43.75;34.50;;;;;;;;4720074;30;45401;-63
2022/12/08 09:36:06;;;;;;;;;33.75;27.75;;;;;;;;4718287;30;45368;-63
2022/12/08 09:38:31;;;;;;;;;38.75;32.00;;;;;;;;4704999;30;45574;-63
2022/12/08 09:40:57;;;;;;;;;42.00;35.00;;;;;;;;4709271;30;45410;-63
2022/12/08 09:43:50;;;;;;;;;40.75;35.00;;;;;;;;4706650;30;46126;-64
2022/12/08 09:46:16;;;;;;;;;36.33;31.33;;;;;;;;4681204;30;45454;-64
2022/12/08 09:48:45;;;;;;;;;45.00;34.50;;;;;;;;4710455;30;45240;-63
2022/12/08 09:51:11;;;;;;;;;36.00;32.75;;;;;;;;4701193;30;46156;-63
2022/12/08 09:53:49;;;;;;;;;42.75;35.00;;;;;;;;4717659;30;45359;-63
2022/12/08 09:56:16;;;;;;;;;38.25;34.25;;;;;;;;4716310;30;45254;-63
2022/12/08 09:58:41;;;;;;;;;42.25;33.25;;;;;;;;4719758;30;45427;-63
2022/12/08 10:01:10;;;;;;;;;41.75;35.25;;;;;;;;4717165;30;45368;-63
2022/12/08 10:03:35;;;;;;;;;40.00;31.00;;;;;;;;4711685;30;45438;-63
2022/12/08 10:06:09;;;;;;;;;38.50;32.25;;;;;;;;4719434;30;45271;-63
2022/12/08 10:08:40;;;;;;;;;43.00;33.50;;;;;;;;4710524;30;45618;-63
2022/12/08 10:11:15;;;;;;;;;34.25;31.25;;;;;;;;4710714;30;45374;-63
2022/12/08 10:13:46;;;;;;;;;37.50;34.50;;;;;;;;4712082;30;45335;-63
2022/12/08 10:16:21;;;;;;;;;31.00;26.75;;;;;;;;4718261;30;45605;-63
2022/12/08 10:18:51;;;;;;;;;34.33;31.67;;;;;;;;4704532;30;45491;-63
2022/12/08 10:21:19;;;;;;;;;32.75;27.75;;;;;;;;4709078;30;45455;-63
2022/12/08 10:23:48;;;;;;;;;39.00;30.00;;;;;;;;4713885;30;45389;-63
2022/12/08 10:26:15;;;;;;;;;35.00;29.33;;;;;;;;4714663;30;45400;-63
2022/12/08 10:28:41;;;;;;;;;36.67;33.00;;;;;;;;4710814;30;45462;-63
2022/12/08 10:31:13;;;;;;;;;37.00;30.67;;;;;;;;4718141;30;45362;-63
2022/12/08 10:33:38;;;;;;;;;29.33;28.67;;;;;;;;4710613;30;45499;-63
2022/12/08 10:36:03;;;;;;;;;34.33;30.33;;;;;;;;4719637;30;45237;-64
2022/12/08 10:38:30;;;;;;;;;32.00;30.67;;;;;;;;4712846;30;45412;-63
2022/12/08 10:41:16;;;;;;;;;35.00;31.00;;;;;;;;4712058;30;45490;-63
2022/12/08 10:43:56;;;;;;;;;32.33;30.33;;;;;;;;4717516;30;45364;-64
2022/12/08 10:46:26;;;;;;;;;38.67;29.33;;;;;;;;4716599;30;45422;-63
2022/12/08 10:49:03;;;;;;;;;35.67;29.00;;;;;;;;4712127;30;45678;-63
2022/12/08 10:51:39;;;;;;;;;29.67;25.67;;;;;;;;4715847;30;45274;-63
2022/12/08 10:54:23;;;;;;;;;42.25;33.25;;;;;;;;4711112;30;45339;-63
2022/12/08 10:56:53;;;;;;;;;41.00;34.00;;;;;;;;4717654;30;45697;-63
2022/12/08 10:59:18;;;;;;;;;48.33;34.33;;;;;;;;4717013;30;45531;-63
2022/12/08 11:01:47;;;;;;;;;42.67;32.00;;;;;;;;4706301;30;46099;-63
2022/12/08 11:04:18;;;;;;;;;42.67;32.67;;;;;;;;4714784;30;45346;-63
2022/12/08 11:06:44;;;;;;;;;45.00;36.75;;;;;;;;4702320;30;45408;-65
2022/12/08 11:09:15;;;;;;;;;31.67;30.33;;;;;;;;4713493;30;45574;-62
2022/12/08 11:11:51;;;;;;;;;40.67;34.33;;;;;;;;4718628;30;45385;-62
2022/12/08 11:14:29;;;;;;;;;39.25;33.50;;;;;;;;4714424;30;45317;-63
2022/12/08 11:17:14;;;;;;;;;52.25;40.00;;;;;;;;4715454;30;45384;-64
2022/12/08 11:19:40;;;;;;;;;48.25;37.50;;;;;;;;4711654;30;45280;-63
2022/12/08 11:22:23;;;;;;;;;37.00;34.33;;;;;;;;4720258;30;45538;-63
2022/12/08 11:24:56;;;;;;;;;37.33;34.33;;;;;;;;4709442;30;45474;-64
2022/12/08 11:27:21;;;;;;;;;30.00;30.00;;;;;;;;4711239;30;45285;-64
2022/12/08 11:29:46;;;;;;;;;39.00;33.67;;;;;;;;4696989;30;45270;-61
2022/12/08 11:32:12;;;;;;;;;41.00;34.33;;;;;;;;4704951;30;46164;-64
2022/12/08 11:34:43;;;;;;;;;40.00;33.00;;;;;;;;4721585;30;45494;-64
2022/12/08 11:37:28;;;;;;;;;38.00;30.33;;;;;;;;4722026;30;45287;-64
2022/12/08 11:39:55;;;;;;;;;38.67;32.67;;;;;;;;4709970;30;45787;-64
2022/12/08 11:42:23;;;;;;;;;32.33;29.00;;;;;;;;4715937;30;46429;-63
2022/12/08 11:44:58;;;;;;;;;36.67;35.33;;;;;;;;4720282;30;45551;-63
2022/12/08 11:47:23;;;;;;;;;38.67;32.00;;;;;;;;4718628;30;45347;-63
2022/12/08 11:49:55;;;;;;;;;38.50;34.50;;;;;;;;4712505;30;45521;-62
2022/12/08 11:52:32;;;;;;;;;40.75;34.75;;;;;;;;4720976;30;46202;-63
2022/12/08 11:55:16;;;;;;;;;44.25;37.00;;;;;;;;4715678;30;45511;-63
2022/12/08 11:57:42;;;;;;;;;45.00;34.50;;;;;;;;4717473;30;45412;-63
2022/12/08 12:00:09;;;;;;;;;41.25;37.00;;;;;;;;4717048;30;45462;-63
2022/12/08 12:02:41;;;;;;;;;51.00;37.67;;;;;;;;4716377;30;45433;-62
2022/12/08 12:05:25;;;;;;;;;42.67;36.00;;;;;;;;4710031;30;45546;-64
2022/12/08 12:07:50;;;;;;;;;37.33;33.00;;;;;;;;4718116;30;45308;-61
2022/12/08 12:10:18;;;;;;;;;38.33;35.67;;;;;;;;4718141;30;45338;-64
2022/12/08 12:13:10;;;;;;;;;41.67;34.67;;;;;;;;4718376;30;45538;-63
2022/12/08 12:15:38;;;;;;;;;45.75;36.00;;;;;;;;4709383;30;45451;-64
2022/12/08 12:18:22;;;;;;;;;37.67;32.67;;;;;;;;4715300;30;45367;-64
2022/12/08 12:21:15;;;;;;;;;45.25;36.75;;;;;;;;4700071;30;45443;-64
2022/12/08 12:23:40;;;;;;;;;40.67;33.67;;;;;;;;4701684;30;47146;-64
2022/12/08 12:26:08;;;;;;;;;38.33;34.00;;;;;;;;4715147;30;45304;-62
2022/12/08 12:28:55;;;;;;;;;44.75;36.50;;;;;;;;4709413;30;45721;-64
2022/12/08 12:31:22;;;;;;;;;39.00;34.67;;;;;;;;4714841;30;45431;-64
2022/12/08 12:33:49;;;;;;;;;40.33;34.00;;;;;;;;4712887;30;46681;-64
2022/12/08 12:36:14;;;;;;;;;39.00;33.67;;;;;;;;4712192;30;45306;-64
2022/12/08 12:39:00;;;;;;;;;42.33;34.00;;;;;;;;4714769;30;45358;-64
2022/12/08 12:41:40;;;;;;;;;41.33;37.00;;;;;;;;4713545;30;45359;-63
2022/12/08 12:44:08;;;;;;;;;38.33;33.33;;;;;;;;4709623;30;46441;-63
2022/12/08 12:46:52;;;;;;;;;35.67;33.00;;;;;;;;4718853;30;45415;-63
2022/12/08 12:49:36;;;;;;;;;40.25;34.00;;;;;;;;4711933;30;45406;-64
2022/12/08 12:52:01;;;;;;;;;37.67;33.00;;;;;;;;4709380;30;45420;-63
2022/12/08 12:54:27;;;;;;;;;40.33;34.00;;;;;;;;4711931;30;45472;-64
2022/12/08 12:56:54;;;;;;;;;35.00;32.67;;;;;;;;4718980;30;45534;-63
2022/12/08 12:59:28;;;;;;;;;45.00;33.67;;;;;;;;4716618;30;45249;-63
2022/12/08 13:01:54;;;;;;;;;42.67;34.33;;;;;;;;4709750;30;45612;-63
2022/12/08 13:04:27;;;;;;;;;34.67;33.00;;;;;;;;4710823;30;45909;-64
2022/12/08 13:06:52;;;;;;;;;38.00;31.00;;;;;;;;4714643;30;45179;-63
2022/12/08 13:09:23;;;;;;;;;38.33;32.67;;;;;;;;4712230;30;45342;-63
2022/12/08 13:11:50;;;;;;;;;35.00;28.00;;;;;;;;4720367;30;45341;-63
2022/12/08 13:14:25;;;;;;;;;33.67;30.67;;;;;;;;4712739;30;45423;-63
2022/12/08 13:16:53;;;;;;;;;29.33;27.33;;;;;;;;4708986;30;45503;-63
2022/12/08 13:19:20;;;;;;;;;36.67;32.00;;;;;;;;4712436;30;45309;-63
2022/12/08 13:21:45;;;;;;;;;36.50;32.00;;;;;;;;4720127;30;45348;-63
2022/12/08 13:24:16;;;;;;;;;39.33;33.00;;;;;;;;4712277;30;45349;-63
2022/12/08 13:26:45;;;;;;;;;29.33;28.33;;;;;;;;4717404;30;45320;-63
2022/12/08 13:29:14;;;;;;;;;41.00;34.33;;;;;;;;4710943;30;45383;-63
2022/12/08 13:31:40;;;;;;;;;39.67;32.00;;;;;;;;4717366;30;45391;-64
2022/12/08 13:34:28;;;;;;;;;40.67;31.00;;;;;;;;4718531;30;47101;-63
2022/12/08 13:36:56;;;;;;;;;40.33;31.67;;;;;;;;4710745;30;45224;-63
2022/12/08 13:39:28;;;;;;;;;42.67;36.67;;;;;;;;4719801;30;45318;-63
2022/12/08 13:42:16;;;;;;;;;43.00;33.67;;;;;;;;4716812;30;45300;-63
2022/12/08 13:44:53;;;;;;;;;30.00;27.00;;;;;;;;4666813;30;47230;-64
2022/12/08 13:47:21;;;;;;;;;31.33;30.67;;;;;;;;4713010;30;45480;-63
2022/12/08 13:49:55;;;;;;;;;31.33;26.67;;;;;;;;4714966;30;45483;-63
2022/12/08 13:52:30;;;;;;;;;32.33;27.67;;;;;;;;4719706;30;45477;-63
2022/12/08 13:54:56;;;;;;;;;34.00;29.00;;;;;;;;4714347;30;46240;-63
2022/12/08 13:57:30;;;;;;;;;32.67;31.33;;;;;;;;4719307;30;45383;-63
2022/12/08 13:59:59;;;;;;;;;34.33;29.33;;;;;;;;4712640;30;45356;-63
2022/12/08 14:02:51;;;;;;;;;46.67;35.00;;;;;;;;4719431;30;45481;-63
2022/12/08 14:05:17;;;;;;;;;42.33;35.33;;;;;;;;4702471;30;45341;-63
2022/12/08 14:07:43;;;;;;;;;39.33;32.33;;;;;;;;4710253;30;45543;-63
2022/12/08 14:10:13;;;;;;;;;33.00;25.67;;;;;;;;4704928;30;45246;-63
2022/12/08 14:12:40;;;;;;;;;31.33;29.33;;;;;;;;4709127;30;45440;-63
2022/12/08 14:15:06;;;;;;;;;41.67;33.67;;;;;;;;4713618;30;46214;-62
2022/12/08 14:17:32;;;;;;;;;33.67;32.33;;;;;;;;4718050;30;45281;-62
2022/12/08 14:19:59;;;;;;;;;46.75;38.00;;;;;;;;4713120;30;45213;-62
2022/12/08 14:22:30;;;;;;;;;38.33;29.67;;;;;;;;4708355;30;45329;-62
2022/12/08 14:24:56;;;;;;;;;46.67;33.00;;;;;;;;4707320;30;45494;-62
2022/12/08 14:27:23;;;;;;;;;37.00;31.00;;;;;;;;4707060;30;46271;-63
2022/12/08 14:29:54;;;;;;;;;40.25;30.25;;;;;;;;4708835;30;45735;-62
2022/12/08 14:32:29;;;;;;;;;43.25;35.25;;;;;;;;4715883;30;45260;-61
2022/12/08 14:34:55;;;;;;;;;43.25;34.25;;;;;;;;4713520;30;46198;-62
2022/12/08 14:37:21;;;;;;;;;40.75;34.25;;;;;;;;4712706;30;45372;-62
2022/12/08 14:39:46;;;;;;;;;33.67;30.67;;;;;;;;4707720;30;45446;-63
2022/12/08 14:42:19;;;;;;;;;36.00;31.67;;;;;;;;4708933;30;45334;-62
2022/12/08 14:44:44;;;;;;;;;45.50;34.50;;;;;;;;4711630;30;45491;-62
2022/12/08 14:47:09;;;;;;;;;38.33;32.00;;;;;;;;4711278;30;45448;-62
2022/12/08 14:49:37;;;;;;;;;28.00;28.00;;;;;;;;4710190;30;45266;-62
2022/12/08 14:52:07;;;;;;;;;39.00;32.50;;;;;;;;4720413;30;45633;-62
2022/12/08 14:54:32;;;;;;;;;34.75;31.75;;;;;;;;4718625;30;47026;-62
2022/12/08 14:57:00;;;;;;;;;38.00;28.33;;;;;;;;4720065;30;45376;-62
2022/12/08 14:59:31;;;;;;;;;42.33;31.67;;;;;;;;4720193;30;45324;-62
2022/12/08 15:02:14;;;;;;;;;36.00;27.75;;;;;;;;4704935;30;45299;-62
2022/12/08 15:04:44;;;;;;;;;37.00;30.67;;;;;;;;4714297;30;45353;-62
2022/12/08 15:07:09;;;;;;;;;43.67;32.33;;;;;;;;4721952;30;45379;-62
2022/12/08 15:09:45;;;;;;;;;42.00;35.00;;;;;;;;4715372;30;45328;-62
2022/12/08 15:12:13;;;;;;;;;32.67;25.00;;;;;;;;4716302;30;45354;-62
2022/12/08 15:14:40;;;;;;;;;37.33;34.33;;;;;;;;4720619;30;45786;-63
2022/12/08 15:17:24;;;;;;;;;48.25;37.25;;;;;;;;4719661;30;45455;-62
2022/12/08 15:19:55;;;;;;;;;33.75;31.50;;;;;;;;4712362;30;45500;-62
2022/12/08 15:22:25;;;;;;;;;37.00;34.00;;;;;;;;4710550;30;45532;-62
2022/12/08 15:24:50;;;;;;;;;37.50;31.50;;;;;;;;4713380;30;46093;-62
2022/12/08 15:27:20;;;;;;;;;37.75;33.50;;;;;;;;4709153;30;45344;-62
2022/12/08 15:29:45;;;;;;;;;44.50;38.25;;;;;;;;4715365;30;45353;-62
2022/12/08 15:32:10;;;;;;;;;37.00;31.33;;;;;;;;4711064;30;45652;-62
2022/12/08 15:34:36;;;;;;;;;42.50;34.50;;;;;;;;4704997;30;45381;-62
2022/12/08 15:37:01;;;;;;;;;35.75;34.25;;;;;;;;4712335;30;45245;-62
2022/12/08 15:39:30;;;;;;;;;42.25;36.75;;;;;;;;4716732;30;45475;-62
2022/12/08 15:41:56;;;;;;;;;27.00;25.50;;;;;;;;4721836;30;45462;-62
2022/12/08 15:44:21;;;;;;;;;47.75;38.25;;;;;;;;4721035;30;45391;-62
2022/12/08 15:46:48;;;;;;;;;33.25;32.00;;;;;;;;4700852;30;46495;-62
2022/12/08 15:49:16;;;;;;;;;40.67;33.67;;;;;;;;4712148;30;45540;-63
2022/12/08 15:51:41;;;;;;;;;32.50;26.00;;;;;;;;4709347;30;45718;-62
2022/12/08 15:54:06;;;;;;;;;36.33;33.33;;;;;;;;4711948;30;46803;-63
2022/12/08 15:56:32;;;;;;;;;42.00;35.33;;;;;;;;4709934;30;45391;-63
2022/12/08 15:58:57;;;;;;;;;43.00;30.67;;;;;;;;4718087;30;45599;-63
2022/12/08 16:01:22;;;;;;;;;39.33;32.00;;;;;;;;4717855;30;46435;-63
2022/12/08 16:03:47;;;;;;;;;36.33;33.33;;;;;;;;4712833;30;46034;-63
2022/12/08 16:06:19;;;;;;;;;35.00;29.67;;;;;;;;4694536;30;46458;-63
2022/12/08 16:08:45;;;;;;;;;34.33;31.67;;;;;;;;4714117;30;45455;-63
2022/12/08 16:13:56;;;;;;;;;36.00;33.33;;;;;;;;4708674;30;45381;-63
2022/12/08 16:16:25;;;;;;;;;40.50;34.50;;;;;;;;4705221;30;45462;-63
2022/12/08 16:18:50;;;;;;;;;45.50;37.50;;;;;;;;4703465;30;45248;-63
2022/12/08 16:21:15;;;;;;;;;36.00;33.00;;;;;;;;4709299;30;45607;-63
2022/12/08 16:23:41;;;;;;;;;42.00;33.50;;;;;;;;4719484;30;46283;-63
2022/12/08 16:26:09;;;;;;;;;38.75;32.00;;;;;;;;4720751;30;45399;-63
2022/12/08 16:28:35;;;;;;;;;42.50;34.25;;;;;;;;4714331;30;45544;-63
2022/12/08 16:31:00;;;;;;;;;45.75;35.00;;;;;;;;4714264;30;45566;-63
2022/12/08 16:33:25;;;;;;;;;45.25;34.25;;;;;;;;4714065;30;45411;-63
2022/12/08 16:35:50;;;;;;;;;37.67;34.00;;;;;;;;4720757;30;45412;-63
2022/12/08 16:38:16;;;;;;;;;40.33;33.67;;;;;;;;4719927;30;45327;-63
2022/12/08 16:43:30;;;;;;;;;49.75;37.75;;;;;;;;4718343;30;45476;-63
2022/12/08 16:45:55;;;;;;;;;44.50;38.00;;;;;;;;4713620;30;45420;-63
2022/12/08 16:48:21;;;;;;;;;44.75;36.50;;;;;;;;4714827;30;45313;-63
2022/12/08 16:50:46;;;;;;;;;45.50;38.50;;;;;;;;4710599;30;45469;-64
2022/12/08 16:53:12;;;;;;;;;48.00;37.75;;;;;;;;4703613;30;45697;-63
2022/12/08 16:55:37;;;;;;;;;50.00;38.00;;;;;;;;4707521;30;45219;-63
2022/12/08 16:58:02;;;;;;;;;41.25;35.25;;;;;;;;4709812;30;45372;-63
2022/12/08 17:00:29;;;;;;;;;54.75;41.50;;;;;;;;4707959;30;45622;-63
2022/12/08 17:02:54;;;;;;;;;50.25;38.50;;;;;;;;4713054;30;46250;-63
2022/12/08 17:05:20;;;;;;;;;50.25;38.50;;;;;;;;4711313;30;45799;-63
2022/12/08 17:07:46;;;;;;;;;57.75;40.25;;;;;;;;4711789;30;45709;-63
2022/12/08 17:10:13;;;;;;;;;50.75;39.25;;;;;;;;4716608;30;45528;-63
2022/12/08 17:12:39;;;;;;;;;56.25;42.50;;;;;;;;4716701;30;46577;-63
2022/12/08 17:15:09;;;;;;;;;48.50;38.75;;;;;;;;4711105;30;45299;-63
2022/12/08 17:17:34;;;;;;;;;55.50;42.25;;;;;;;;4718167;30;45462;-63
2022/12/08 17:20:07;;;;;;;;;59.25;43.00;;;;;;;;4709457;30;45647;-62
2022/12/08 17:22:33;;;;;;;;;52.25;42.00;;;;;;;;4716615;30;46103;-63
2022/12/08 17:24:59;;;;;;;;;62.00;46.25;;;;;;;;4717078;30;45331;-63
2022/12/08 17:27:24;;;;;;;;;58.25;45.50;;;;;;;;4711533;30;45398;-63
2022/12/08 17:29:49;;;;;;;;;63.75;46.75;;;;;;;;4711917;30;45423;-63
2022/12/08 17:32:14;;;;;;;;;63.00;44.00;;;;;;;;4716545;30;45333;-63
2022/12/08 17:34:39;;;;;;;;;52.25;37.50;;;;;;;;4710949;30;45479;-63
2022/12/08 17:37:05;;;;;;;;;53.50;42.00;;;;;;;;4714482;30;45886;-62
2022/12/08 17:39:30;;;;;;;;;60.00;47.50;;;;;;;;4713899;30;45430;-63
2022/12/08 17:41:55;;;;;;;;;57.25;43.50;;;;;;;;4714461;30;45509;-63
2022/12/08 17:44:20;;;;;;;;;58.25;45.25;;;;;;;;4712863;30;45478;-64
2022/12/08 17:46:46;;;;;;;;;57.00;42.00;;;;;;;;4716362;30;45657;-63
2022/12/08 17:49:18;;;;;;;;;51.00;41.50;;;;;;;;4706266;30;45413;-63
2022/12/08 17:51:47;;;;;;;;;50.25;41.75;;;;;;;;4708713;30;47430;-63
2022/12/08 17:54:13;;;;;;;;;57.75;44.50;;;;;;;;4708817;30;45430;-63
2022/12/08 17:56:38;;;;;;;;;58.00;42.50;;;;;;;;4712836;30;45319;-63
2022/12/08 17:59:03;;;;;;;;;61.75;46.25;;;;;;;;4712225;30;45271;-63
2022/12/08 18:01:28;;;;;;;;;55.25;44.00;;;;;;;;4709536;30;45295;-63
2022/12/08 18:03:54;;;;;;;;;51.25;39.75;;;;;;;;4704554;30;45408;-63
2022/12/08 18:06:19;;;;;;;;;58.00;41.00;;;;;;;;4709579;30;45258;-63
2022/12/08 18:08:44;;;;;;;;;50.25;42.75;;;;;;;;4714409;30;45573;-63
2022/12/08 18:11:14;;;;;;;;;59.75;45.75;;;;;;;;4708668;30;45601;-64
2022/12/08 18:13:40;;;;;;;;;55.00;43.00;;;;;;;;4699615;30;46400;-64
2022/12/08 18:16:05;;;;;;;;;54.75;43.75;;;;;;;;4715310;30;45453;-63
2022/12/08 18:18:30;;;;;;;;;57.75;43.25;;;;;;;;4710741;30;45645;-63
2022/12/08 18:20:56;;;;;;;;;52.25;42.25;;;;;;;;4715125;30;45561;-63
2022/12/08 18:23:21;;;;;;;;;55.50;38.75;;;;;;;;4712196;30;45452;-63
2022/12/08 18:25:46;;;;;;;;;52.75;44.00;;;;;;;;4711650;30;45651;-62
2022/12/08 18:28:11;;;;;;;;;63.75;44.50;;;;;;;;4711544;30;45471;-63
2022/12/08 18:30:37;;;;;;;;;65.75;44.00;;;;;;;;4702442;30;45971;-63
2022/12/08 18:33:03;;;;;;;;;59.50;45.00;;;;;;;;4712171;30;45589;-63
2022/12/08 18:35:28;;;;;;;;;57.75;44.50;;;;;;;;4709406;30;45568;-63
2022/12/08 18:37:54;;;;;;;;;62.50;49.50;;;;;;;;4711032;30;45551;-66
2022/12/08 18:40:19;;;;;;;;;55.75;46.25;;;;;;;;4714713;30;45980;-67
2022/12/08 18:42:44;;;;;;;;;87.50;62.25;;;;;;;;4709960;30;45253;-67
2022/12/08 18:45:10;;;;;;;;;68.50;49.50;;;;;;;;4707559;30;45478;-67
2022/12/08 18:47:36;;;;;;;;;61.00;46.50;;;;;;;;4714105;30;45557;-67
2022/12/08 18:50:02;;;;;;;;;69.50;47.00;;;;;;;;4717388;30;46396;-66
2022/12/08 18:52:27;;;;;;;;;66.25;51.50;;;;;;;;4707799;30;45463;-67
2022/12/08 18:54:52;;;;;;;;;63.75;46.25;;;;;;;;4714993;30;45685;-67
2022/12/08 18:57:18;;;;;;;;;73.25;54.25;;;;;;;;4711198;30;45454;-67
2022/12/08 18:59:43;;;;;;;;;71.50;54.50;;;;;;;;4704191;30;45498;-66
2022/12/08 19:02:12;;;;;;;;;66.50;50.75;;;;;;;;4703368;30;45316;-67
2022/12/08 19:04:37;;;;;;;;;62.75;47.00;;;;;;;;4709485;30;46791;-67
2022/12/08 19:07:03;;;;;;;;;62.25;49.00;;;;;;;;4711145;30;45526;-67
2022/12/08 19:09:28;;;;;;;;;64.75;50.75;;;;;;;;4707732;30;46415;-67
2022/12/08 19:11:54;;;;;;;;;64.50;48.75;;;;;;;;4712887;30;45495;-65
2022/12/08 19:14:19;;;;;;;;;61.25;51.00;;;;;;;;4713205;30;45343;-66
2022/12/08 19:16:44;;;;;;;;;59.00;46.75;;;;;;;;4707504;30;45605;-67
2022/12/08 19:19:09;;;;;;;;;65.75;49.75;;;;;;;;4717540;30;46313;-67
2022/12/08 19:21:37;;;;;;;;;62.75;50.00;;;;;;;;4714265;30;45488;-66
2022/12/08 19:24:02;;;;;;;;;61.50;47.75;;;;;;;;4714716;30;45611;-66
2022/12/08 19:26:27;;;;;;;;;58.50;47.00;;;;;;;;4714233;30;45465;-66
2022/12/08 19:28:53;;;;;;;;;62.25;46.25;;;;;;;;4713499;30;46441;-66
2022/12/08 19:31:18;;;;;;;;;64.75;41.50;;;;;;;;4708642;30;45457;-66
2022/12/08 19:33:43;;;;;;;;;58.00;44.50;;;;;;;;4713515;30;45947;-67
2022/12/08 19:36:13;;;;;;;;;73.75;56.50;;;;;;;;4715668;30;45416;-67
2022/12/08 19:46:56;;;;;;;;;61.50;50.00;;;;;;;;4707389;30;46534;-67
2022/12/08 19:49:22;;;;;;;;;64.75;46.25;;;;;;;;4710554;30;46165;-68
2022/12/08 19:51:47;;;;;;;;;62.25;45.00;;;;;;;;4710908;30;45412;-67
2022/12/08 19:54:12;;;;;;;;;66.75;46.00;;;;;;;;4710924;30;45424;-69
2022/12/08 19:56:37;;;;;;;;;53.50;40.75;;;;;;;;4711217;30;45724;-67
2022/12/08 19:59:02;;;;;;;;;61.25;48.75;;;;;;;;4704527;30;46360;-66
2022/12/08 20:01:28;;;;;;;;;63.75;46.50;;;;;;;;4711445;30;45423;-67
2022/12/08 20:03:53;;;;;;;;;69.75;52.50;;;;;;;;4713709;30;45312;-67